x

Sabine Pass, Tx (srst2) Weather Station

11:00am - Fri 22nd Sep 2017 All times are CDT. -5 hours from GMT.

  • Wind
    9mph, 10mph gusts
  • Air Temp 83°f
  • Sea Pressure 1016.3mb
  • Sabine Pass, Tx
  • Sabine Pass, Tx

More Historic Weather Station data

Upgrade to MSW Pro to gain access to the past 30 days of data for over 8000 Wavebouys and Weather Stations around the globe.

Join

Comparision Forecast

View Surf forecast
   
Fri 09/22 11:00am 9 10 mph 1016.3mb 83f
10:00am 8 9 mph 1016.2mb 83f
9:00am 8 9 mph 1015.8mb 82f
8:00am 5 5 mph 1015.4mb 77f
7:00am 3 3 mph 1014.8mb 79f
6:00am 5 6 mph 1014.4mb 80f
5:00am 5 6 mph 1014.4mb 80f
4:00am 6 7 mph 1014.4mb 80f
3:00am 8 10 mph 1014.5mb 80f
2:00am 8 10 mph 1014.7mb 81f
1:00am 9 11 mph 1014.9mb 81f
12:00am 8 10 mph 1015mb 81f
Thu 09/21 11:00pm 7 9 mph 1015mb 81f
10:00pm 7 9 mph 1015.2mb 81f
9:00pm 7 8 mph 1015mb 82f
8:00pm 8 10 mph 1014.2mb 82f
7:00pm 9 11 mph 1014.2mb 82f
6:00pm 10 14 mph 1014.3mb 82f
5:00pm 9 11 mph 1014.4mb 83f
4:00pm 13 16 mph 1014.7mb 83f
3:00pm 14 15 mph 1015.3mb 83f
2:00pm 11 14 mph 1015.7mb 84f
1:00pm 9 11 mph 1016.3mb 84f
12:00pm 9 10 mph 1016.8mb 83f
11:00am 10 13 mph 1016.6mb 84f
10:00am 10 11 mph 1016.4mb 84f
9:00am 9 14 mph 1016.2mb 83f
8:00am 8 10 mph 1015.7mb 82f
7:00am 9 11 mph 1015.3mb 82f
6:00am 10 13 mph 1015mb 82f
5:00am 13 15 mph 1014.3mb 82f
4:00am 11 15 mph 1014.6mb 82f
3:00am 14 17 mph 1014.9mb 82f
2:00am 11 14 mph 1015.1mb 82f
1:00am 11 15 mph 1015.3mb 82f
12:00am 14 16 mph 1015.4mb 82f
Wed 09/20 11:00pm 13 16 mph 1015.3mb 82f
10:00pm 14 17 mph 1015.2mb 82f
9:00pm 11 15 mph 1014.8mb 82f
8:00pm 10 13 mph 1014.3mb 82f
7:00pm 10 11 mph 1013.5mb 83f
6:00pm 8 10 mph 1013.5mb 83f
5:00pm 10 15 mph 1013.5mb 84f
4:00pm 9 13 mph 1013.8mb 84f
3:00pm 13 15 mph 1014.4mb 85f
2:00pm 13 15 mph 1014.8mb 85f
1:00pm 13 15 mph 1015.5mb 85f
12:00pm 9 13 mph 1015.9mb 86f
11:00am 10 14 mph 1016.1mb 85f
10:00am 13 15 mph 1015.8mb 83f
9:00am 10 13 mph 1015.2mb 83f
8:00am 13 16 mph 1014.7mb 83f
7:00am 13 16 mph 1014.4mb 82f
6:00am 11 14 mph 1013.8mb 82f
5:00am 14 17 mph 1013.4mb 82f
4:00am 14 17 mph 1013.3mb 82f
3:00am 15 18 mph 1013.4mb 82f
2:00am 14 16 mph 1013.5mb 82f
1:00am 15 17 mph 1013.6mb 82f
12:00am 13 16 mph 1013.9mb 82f
Tue 09/19 11:00pm 13 17 mph 1014mb 82f
10:00pm 13 17 mph 1013.8mb 82f
9:00pm 13 15 mph 1013.7mb 82f
8:00pm 13 16 mph 1012.9mb 82f
7:00pm 11 14 mph 1012.5mb 83f
6:00pm 11 14 mph 1012.9mb 83f
5:00pm 11 14 mph 1013mb 83f
4:00pm 10 13 mph 1013.4mb 85f
3:00pm 9 10 mph 1014.1mb 85f
2:00pm 10 11 mph 1014.8mb 83f
1:00pm 9 11 mph 1015.4mb 84f
12:00pm 10 11 mph 1015.9mb 84f
11:00am 9 10 mph 1016.2mb 84f
10:00am 8 10 mph 1016.2mb 84f
9:00am 8 11 mph 1015.8mb 83f
8:00am 7 8 mph 1015.3mb 81f
7:00am 8 9 mph 1015.1mb 81f
6:00am 8 10 mph 1014.6mb 81f
5:00am 9 13 mph 1014.6mb 81f
4:00am 11 14 mph 1014.2mb 81f
3:00am 11 15 mph 1014.1mb 81f
2:00am 11 14 mph 1014.3mb 82f
1:00am 7 9 mph 1014.8mb 81f
12:00am 7 8 mph 1015mb 82f
Mon 09/18 11:00pm 9 11 mph 1014.8mb 82f
10:00pm 6 7 mph 1014.8mb 82f
9:00pm 9 11 mph 1015.1mb 82f
8:00pm 9 11 mph 1015.1mb 82f
7:00pm 7 9 mph 1015.3mb 82f
6:00pm 9 11 mph 1015.1mb 83f